sensor_id;sensor_type;location;lat;lon;timestamp;P1;durP1;ratioP1;P2;durP2;ratioP2
58252;SDS011;44050;48.884;8.762;2023-01-20T00:00:51;2.17;;;1.10;;
58252;SDS011;44050;48.884;8.762;2023-01-20T00:03:22;0.70;;;0.70;;
58252;SDS011;44050;48.884;8.762;2023-01-20T00:05:52;5.03;;;1.13;;
58252;SDS011;44050;48.884;8.762;2023-01-20T00:08:23;2.87;;;1.70;;
58252;SDS011;44050;48.884;8.762;2023-01-20T00:10:54;1.67;;;1.17;;
58252;SDS011;44050;48.884;8.762;2023-01-20T00:13:24;1.33;;;1.20;;
58252;SDS011;44050;48.884;8.762;2023-01-20T00:15:55;1.00;;;0.93;;
58252;SDS011;44050;48.884;8.762;2023-01-20T00:18:26;0.90;;;0.50;;
58252;SDS011;44050;48.884;8.762;2023-01-20T00:21:00;2.30;;;1.40;;
58252;SDS011;44050;48.884;8.762;2023-01-20T00:23:31;1.55;;;1.42;;
58252;SDS011;44050;48.884;8.762;2023-01-20T00:26:03;1.67;;;1.37;;
58252;SDS011;44050;48.884;8.762;2023-01-20T00:28:34;0.88;;;0.85;;
58252;SDS011;44050;48.884;8.762;2023-01-20T00:31:13;2.97;;;1.38;;
58252;SDS011;44050;48.884;8.762;2023-01-20T00:33:45;3.20;;;2.45;;
58252;SDS011;44050;48.884;8.762;2023-01-20T00:36:16;1.50;;;1.40;;
58252;SDS011;44050;48.884;8.762;2023-01-20T00:38:47;2.05;;;1.15;;
58252;SDS011;44050;48.884;8.762;2023-01-20T00:41:18;1.10;;;0.88;;
58252;SDS011;44050;48.884;8.762;2023-01-20T00:43:48;0.80;;;0.80;;
58252;SDS011;44050;48.884;8.762;2023-01-20T00:46:19;2.50;;;1.80;;
58252;SDS011;44050;48.884;8.762;2023-01-20T00:48:52;2.22;;;1.58;;
58252;SDS011;44050;48.884;8.762;2023-01-20T00:51:23;1.13;;;1.07;;
58252;SDS011;44050;48.884;8.762;2023-01-20T00:53:53;3.93;;;1.87;;
58252;SDS011;44050;48.884;8.762;2023-01-20T00:56:24;1.70;;;1.30;;
58252;SDS011;44050;48.884;8.762;2023-01-20T00:58:55;2.05;;;1.77;;
58252;SDS011;44050;48.884;8.762;2023-01-20T01:01:26;0.73;;;0.73;;
58252;SDS011;44050;48.884;8.762;2023-01-20T01:03:57;2.03;;;1.17;;
58252;SDS011;44050;48.884;8.762;2023-01-20T01:06:27;1.63;;;1.03;;
58252;SDS011;44050;48.884;8.762;2023-01-20T01:08:58;1.80;;;1.70;;
58252;SDS011;44050;48.884;8.762;2023-01-20T01:11:29;2.47;;;2.00;;
58252;SDS011;44050;48.884;8.762;2023-01-20T01:13:59;3.07;;;1.80;;
58252;SDS011;44050;48.884;8.762;2023-01-20T01:16:31;1.48;;;1.33;;
58252;SDS011;44050;48.884;8.762;2023-01-20T01:19:01;2.23;;;1.50;;
58252;SDS011;44050;48.884;8.762;2023-01-20T01:21:32;0.93;;;0.93;;
58252;SDS011;44050;48.884;8.762;2023-01-20T01:24:03;3.50;;;1.60;;
58252;SDS011;44050;48.884;8.762;2023-01-20T01:26:33;1.80;;;1.70;;
58252;SDS011;44050;48.884;8.762;2023-01-20T01:29:04;2.50;;;2.03;;
58252;SDS011;44050;48.884;8.762;2023-01-20T01:31:35;7.53;;;2.37;;
58252;SDS011;44050;48.884;8.762;2023-01-20T01:34:06;1.17;;;1.17;;
58252;SDS011;44050;48.884;8.762;2023-01-20T01:36:36;3.43;;;2.43;;
58252;SDS011;44050;48.884;8.762;2023-01-20T01:39:07;2.10;;;1.55;;
58252;SDS011;44050;48.884;8.762;2023-01-20T01:41:38;2.27;;;1.40;;
58252;SDS011;44050;48.884;8.762;2023-01-20T01:44:10;1.43;;;1.33;;
58252;SDS011;44050;48.884;8.762;2023-01-20T01:46:41;2.38;;;1.55;;
58252;SDS011;44050;48.884;8.762;2023-01-20T01:49:16;2.65;;;2.22;;
58252;SDS011;44050;48.884;8.762;2023-01-20T01:51:50;2.28;;;1.67;;
58252;SDS011;44050;48.884;8.762;2023-01-20T01:54:23;2.08;;;1.20;;
58252;SDS011;44050;48.884;8.762;2023-01-20T01:56:55;3.70;;;2.38;;
58252;SDS011;44050;48.884;8.762;2023-01-20T01:59:26;3.30;;;2.63;;
58252;SDS011;44050;48.884;8.762;2023-01-20T02:01:57;2.25;;;2.05;;
58252;SDS011;44050;48.884;8.762;2023-01-20T02:04:27;7.70;;;1.87;;
58252;SDS011;44050;48.884;8.762;2023-01-20T02:07:05;2.20;;;2.00;;
58252;SDS011;44050;48.884;8.762;2023-01-20T02:09:37;2.97;;;1.58;;
58252;SDS011;44050;48.884;8.762;2023-01-20T02:12:10;1.63;;;1.52;;
58252;SDS011;44050;48.884;8.762;2023-01-20T02:14:43;2.25;;;1.50;;
58252;SDS011;44050;48.884;8.762;2023-01-20T02:28:17;1.77;;;1.40;;
58252;SDS011;44050;48.884;8.762;2023-01-20T02:33:51;1.67;;;1.17;;
58252;SDS011;44050;48.884;8.762;2023-01-20T02:36:31;5.22;;;2.15;;
58252;SDS011;44050;48.884;8.762;2023-01-20T02:46:37;1.77;;;1.67;;
58252;SDS011;44050;48.884;8.762;2023-01-20T02:49:17;2.38;;;1.80;;
58252;SDS011;44050;48.884;8.762;2023-01-20T02:51:50;2.53;;;1.90;;
58252;SDS011;44050;48.884;8.762;2023-01-20T02:54:22;1.10;;;1.00;;
58252;SDS011;44050;48.884;8.762;2023-01-20T02:56:55;2.70;;;1.65;;
58252;SDS011;44050;48.884;8.762;2023-01-20T02:59:28;1.15;;;1.08;;
58252;SDS011;44050;48.884;8.762;2023-01-20T03:02:02;1.42;;;1.33;;
58252;SDS011;44050;48.884;8.762;2023-01-20T03:04:35;3.22;;;1.20;;
58252;SDS011;44050;48.884;8.762;2023-01-20T03:07:08;5.38;;;2.05;;
58252;SDS011;44050;48.884;8.762;2023-01-20T03:09:41;2.80;;;2.50;;
58252;SDS011;44050;48.884;8.762;2023-01-20T03:15:34;2.83;;;2.03;;
58252;SDS011;44050;48.884;8.762;2023-01-20T03:18:07;2.20;;;1.48;;
58252;SDS011;44050;48.884;8.762;2023-01-20T03:20:37;2.90;;;2.07;;
58252;SDS011;44050;48.884;8.762;2023-01-20T03:23:08;1.47;;;1.37;;
58252;SDS011;44050;48.884;8.762;2023-01-20T03:25:39;3.58;;;1.60;;
58252;SDS011;44050;48.884;8.762;2023-01-20T03:28:10;2.35;;;1.92;;
58252;SDS011;44050;48.884;8.762;2023-01-20T03:30:41;3.33;;;1.80;;
58252;SDS011;44050;48.884;8.762;2023-01-20T03:33:12;1.30;;;1.20;;
58252;SDS011;44050;48.884;8.762;2023-01-20T03:35:43;1.90;;;1.45;;
58252;SDS011;44050;48.884;8.762;2023-01-20T03:38:14;3.97;;;1.47;;
58252;SDS011;44050;48.884;8.762;2023-01-20T03:40:49;2.33;;;2.10;;
58252;SDS011;44050;48.884;8.762;2023-01-20T03:43:27;1.75;;;1.65;;
58252;SDS011;44050;48.884;8.762;2023-01-20T03:51:20;2.03;;;1.92;;
58252;SDS011;44050;48.884;8.762;2023-01-20T03:54:01;1.90;;;1.70;;
58252;SDS011;44050;48.884;8.762;2023-01-20T03:59:19;1.95;;;1.80;;
58252;SDS011;44050;48.884;8.762;2023-01-20T04:01:51;3.33;;;1.90;;
58252;SDS011;44050;48.884;8.762;2023-01-20T04:04:22;4.05;;;2.05;;
58252;SDS011;44050;48.884;8.762;2023-01-20T04:06:53;3.15;;;1.63;;
58252;SDS011;44050;48.884;8.762;2023-01-20T04:09:26;2.13;;;2.03;;
58252;SDS011;44050;48.884;8.762;2023-01-20T04:12:00;1.30;;;1.02;;
58252;SDS011;44050;48.884;8.762;2023-01-20T04:14:33;2.53;;;1.43;;
58252;SDS011;44050;48.884;8.762;2023-01-20T04:17:03;2.20;;;1.20;;
58252;SDS011;44050;48.884;8.762;2023-01-20T04:19:34;1.42;;;0.95;;
58252;SDS011;44050;48.884;8.762;2023-01-20T04:22:13;1.37;;;1.27;;
58252;SDS011;44050;48.884;8.762;2023-01-20T04:27:22;2.17;;;1.30;;
58252;SDS011;44050;48.884;8.762;2023-01-20T04:29:53;1.60;;;1.50;;
58252;SDS011;44050;48.884;8.762;2023-01-20T04:32:23;1.90;;;1.67;;
58252;SDS011;44050;48.884;8.762;2023-01-20T04:34:54;2.10;;;1.93;;
58252;SDS011;44050;48.884;8.762;2023-01-20T04:37:25;0.80;;;0.80;;
58252;SDS011;44050;48.884;8.762;2023-01-20T04:39:55;1.13;;;1.13;;
58252;SDS011;44050;48.884;8.762;2023-01-20T04:42:26;1.70;;;1.60;;
58252;SDS011;44050;48.884;8.762;2023-01-20T04:44:57;1.23;;;0.95;;
58252;SDS011;44050;48.884;8.762;2023-01-20T04:47:28;1.50;;;1.40;;
58252;SDS011;44050;48.884;8.762;2023-01-20T04:49:59;1.48;;;1.38;;
58252;SDS011;44050;48.884;8.762;2023-01-20T04:52:30;2.10;;;1.90;;
58252;SDS011;44050;48.884;8.762;2023-01-20T04:55:01;1.43;;;1.33;;
58252;SDS011;44050;48.884;8.762;2023-01-20T04:57:32;2.83;;;1.70;;
58252;SDS011;44050;48.884;8.762;2023-01-20T05:00:03;1.80;;;1.70;;
58252;SDS011;44050;48.884;8.762;2023-01-20T05:02:35;1.50;;;1.40;;
58252;SDS011;44050;48.884;8.762;2023-01-20T05:05:06;1.57;;;1.47;;
58252;SDS011;44050;48.884;8.762;2023-01-20T05:07:36;1.15;;;1.05;;
58252;SDS011;44050;48.884;8.762;2023-01-20T05:10:07;2.40;;;1.53;;
58252;SDS011;44050;48.884;8.762;2023-01-20T05:12:40;4.78;;;1.38;;
58252;SDS011;44050;48.884;8.762;2023-01-20T05:15:12;1.73;;;1.33;;
58252;SDS011;44050;48.884;8.762;2023-01-20T05:17:45;2.90;;;1.30;;
58252;SDS011;44050;48.884;8.762;2023-01-20T05:20:16;4.95;;;3.75;;
58252;SDS011;44050;48.884;8.762;2023-01-20T05:22:50;3.35;;;2.55;;
58252;SDS011;44050;48.884;8.762;2023-01-20T05:25:21;3.17;;;2.65;;
58252;SDS011;44050;48.884;8.762;2023-01-20T05:27:52;3.60;;;2.67;;
58252;SDS011;44050;48.884;8.762;2023-01-20T05:30:22;2.17;;;1.90;;
58252;SDS011;44050;48.884;8.762;2023-01-20T05:32:54;2.93;;;2.07;;
58252;SDS011;44050;48.884;8.762;2023-01-20T05:37:55;4.10;;;1.48;;
58252;SDS011;44050;48.884;8.762;2023-01-20T05:40:26;1.17;;;1.07;;
58252;SDS011;44050;48.884;8.762;2023-01-20T05:43:00;2.40;;;1.77;;
58252;SDS011;44050;48.884;8.762;2023-01-20T05:45:31;1.77;;;1.45;;
58252;SDS011;44050;48.884;8.762;2023-01-20T05:48:02;2.40;;;1.65;;
58252;SDS011;44050;48.884;8.762;2023-01-20T05:50:33;1.30;;;1.20;;
58252;SDS011;44050;48.884;8.762;2023-01-20T05:53:04;1.20;;;1.10;;
58252;SDS011;44050;48.884;8.762;2023-01-20T05:55:35;1.17;;;1.17;;
58252;SDS011;44050;48.884;8.762;2023-01-20T05:58:06;1.37;;;1.00;;
58252;SDS011;44050;48.884;8.762;2023-01-20T06:00:37;2.85;;;1.30;;
58252;SDS011;44050;48.884;8.762;2023-01-20T06:03:07;2.07;;;1.27;;
58252;SDS011;44050;48.884;8.762;2023-01-20T06:05:38;1.67;;;1.53;;
58252;SDS011;44050;48.884;8.762;2023-01-20T06:08:09;3.90;;;1.23;;
58252;SDS011;44050;48.884;8.762;2023-01-20T06:10:40;4.45;;;1.77;;
58252;SDS011;44050;48.884;8.762;2023-01-20T06:13:10;1.10;;;0.90;;
58252;SDS011;44050;48.884;8.762;2023-01-20T06:15:43;4.45;;;2.13;;
58252;SDS011;44050;48.884;8.762;2023-01-20T06:18:13;2.10;;;1.50;;
58252;SDS011;44050;48.884;8.762;2023-01-20T06:20:44;1.40;;;0.93;;
58252;SDS011;44050;48.884;8.762;2023-01-20T06:23:15;2.67;;;1.45;;
58252;SDS011;44050;48.884;8.762;2023-01-20T06:25:46;1.85;;;1.70;;
58252;SDS011;44050;48.884;8.762;2023-01-20T06:28:17;1.67;;;1.57;;
58252;SDS011;44050;48.884;8.762;2023-01-20T06:30:48;2.33;;;0.90;;
58252;SDS011;44050;48.884;8.762;2023-01-20T06:33:18;1.83;;;1.73;;
58252;SDS011;44050;48.884;8.762;2023-01-20T06:35:51;1.40;;;1.30;;
58252;SDS011;44050;48.884;8.762;2023-01-20T06:38:23;2.50;;;1.40;;
58252;SDS011;44050;48.884;8.762;2023-01-20T06:41:01;2.00;;;1.35;;
58252;SDS011;44050;48.884;8.762;2023-01-20T06:43:32;2.15;;;1.45;;
58252;SDS011;44050;48.884;8.762;2023-01-20T06:46:04;1.88;;;1.77;;
58252;SDS011;44050;48.884;8.762;2023-01-20T06:48:35;3.45;;;1.75;;
58252;SDS011;44050;48.884;8.762;2023-01-20T06:51:08;2.40;;;1.65;;
58252;SDS011;44050;48.884;8.762;2023-01-20T06:53:39;1.40;;;1.30;;
58252;SDS011;44050;48.884;8.762;2023-01-20T06:56:11;1.40;;;1.30;;
58252;SDS011;44050;48.884;8.762;2023-01-20T06:58:42;3.85;;;2.35;;
58252;SDS011;44050;48.884;8.762;2023-01-20T07:03:49;1.85;;;1.70;;
58252;SDS011;44050;48.884;8.762;2023-01-20T07:08:54;1.40;;;1.30;;
58252;SDS011;44050;48.884;8.762;2023-01-20T07:11:25;1.80;;;0.80;;
58252;SDS011;44050;48.884;8.762;2023-01-20T07:13:56;1.08;;;0.95;;
58252;SDS011;44050;48.884;8.762;2023-01-20T07:16:27;1.10;;;1.08;;
58252;SDS011;44050;48.884;8.762;2023-01-20T07:18:57;1.97;;;1.70;;
58252;SDS011;44050;48.884;8.762;2023-01-20T07:21:28;1.67;;;1.57;;
58252;SDS011;44050;48.884;8.762;2023-01-20T07:24:00;1.75;;;1.27;;
58252;SDS011;44050;48.884;8.762;2023-01-20T07:26:31;4.15;;;3.08;;
58252;SDS011;44050;48.884;8.762;2023-01-20T07:29:02;1.43;;;1.33;;
58252;SDS011;44050;48.884;8.762;2023-01-20T07:31:32;2.40;;;1.20;;
58252;SDS011;44050;48.884;8.762;2023-01-20T07:34:03;1.00;;;1.00;;
58252;SDS011;44050;48.884;8.762;2023-01-20T07:36:34;1.37;;;1.00;;
58252;SDS011;44050;48.884;8.762;2023-01-20T07:39:05;5.00;;;1.47;;
58252;SDS011;44050;48.884;8.762;2023-01-20T07:41:35;1.23;;;1.17;;
58252;SDS011;44050;48.884;8.762;2023-01-20T07:44:06;2.47;;;1.53;;
58252;SDS011;44050;48.884;8.762;2023-01-20T07:46:37;1.20;;;1.10;;
58252;SDS011;44050;48.884;8.762;2023-01-20T07:49:08;4.07;;;1.80;;
58252;SDS011;44050;48.884;8.762;2023-01-20T07:51:39;2.55;;;1.17;;
58252;SDS011;44050;48.884;8.762;2023-01-20T07:54:10;2.07;;;0.90;;
58252;SDS011;44050;48.884;8.762;2023-01-20T07:56:41;3.40;;;3.05;;
58252;SDS011;44050;48.884;8.762;2023-01-20T07:59:12;4.67;;;2.53;;
58252;SDS011;44050;48.884;8.762;2023-01-20T08:01:42;2.43;;;2.13;;
58252;SDS011;44050;48.884;8.762;2023-01-20T08:04:13;4.82;;;3.33;;
58252;SDS011;44050;48.884;8.762;2023-01-20T08:06:44;4.45;;;2.50;;
58252;SDS011;44050;48.884;8.762;2023-01-20T08:09:15;5.37;;;4.33;;
58252;SDS011;44050;48.884;8.762;2023-01-20T08:11:45;4.63;;;3.73;;
58252;SDS011;44050;48.884;8.762;2023-01-20T08:14:16;3.87;;;3.50;;
58252;SDS011;44050;48.884;8.762;2023-01-20T08:16:47;4.10;;;3.17;;
58252;SDS011;44050;48.884;8.762;2023-01-20T08:19:18;3.57;;;2.93;;
58252;SDS011;44050;48.884;8.762;2023-01-20T08:21:49;6.03;;;4.22;;
58252;SDS011;44050;48.884;8.762;2023-01-20T08:24:19;2.60;;;2.40;;
58252;SDS011;44050;48.884;8.762;2023-01-20T08:26:50;3.55;;;3.33;;
58252;SDS011;44050;48.884;8.762;2023-01-20T08:29:21;3.85;;;2.80;;
58252;SDS011;44050;48.884;8.762;2023-01-20T08:31:52;3.73;;;3.43;;
58252;SDS011;44050;48.884;8.762;2023-01-20T08:34:23;2.60;;;2.40;;
58252;SDS011;44050;48.884;8.762;2023-01-20T08:36:53;5.53;;;2.33;;
58252;SDS011;44050;48.884;8.762;2023-01-20T08:39:26;4.43;;;2.92;;
58252;SDS011;44050;48.884;8.762;2023-01-20T08:41:57;4.37;;;3.07;;
58252;SDS011;44050;48.884;8.762;2023-01-20T08:44:28;6.40;;;3.20;;
58252;SDS011;44050;48.884;8.762;2023-01-20T08:46:59;3.58;;;2.50;;
58252;SDS011;44050;48.884;8.762;2023-01-20T08:49:32;3.30;;;2.78;;
58252;SDS011;44050;48.884;8.762;2023-01-20T08:52:02;2.13;;;1.80;;
58252;SDS011;44050;48.884;8.762;2023-01-20T08:54:33;4.53;;;1.90;;
58252;SDS011;44050;48.884;8.762;2023-01-20T08:57:04;2.03;;;1.47;;
58252;SDS011;44050;48.884;8.762;2023-01-20T08:59:34;2.13;;;1.90;;
58252;SDS011;44050;48.884;8.762;2023-01-20T09:02:05;1.93;;;1.73;;
58252;SDS011;44050;48.884;8.762;2023-01-20T09:04:36;3.33;;;3.03;;
58252;SDS011;44050;48.884;8.762;2023-01-20T09:07:09;4.05;;;2.95;;
58252;SDS011;44050;48.884;8.762;2023-01-20T09:09:40;2.15;;;2.00;;
58252;SDS011;44050;48.884;8.762;2023-01-20T09:12:10;5.33;;;2.17;;
58252;SDS011;44050;48.884;8.762;2023-01-20T09:14:41;1.57;;;1.47;;
58252;SDS011;44050;48.884;8.762;2023-01-20T09:17:12;2.83;;;2.63;;
58252;SDS011;44050;48.884;8.762;2023-01-20T09:19:44;2.80;;;2.58;;
58252;SDS011;44050;48.884;8.762;2023-01-20T09:22:15;1.33;;;1.23;;
58252;SDS011;44050;48.884;8.762;2023-01-20T09:24:45;2.10;;;1.90;;
58252;SDS011;44050;48.884;8.762;2023-01-20T09:27:16;1.77;;;1.20;;
58252;SDS011;44050;48.884;8.762;2023-01-20T09:29:47;50.97;;;22.93;;
58252;SDS011;44050;48.884;8.762;2023-01-20T09:32:18;106.03;;;31.30;;
58252;SDS011;44050;48.884;8.762;2023-01-20T09:34:48;52.70;;;20.40;;
58252;SDS011;44050;48.884;8.762;2023-01-20T09:37:19;30.47;;;14.23;;
58252;SDS011;44050;48.884;8.762;2023-01-20T09:40:17;26.83;;;14.30;;
58252;SDS011;44050;48.884;8.762;2023-01-20T09:46:06;8.15;;;4.35;;
58252;SDS011;44050;48.884;8.762;2023-01-20T09:54:55;2.97;;;2.63;;
58252;SDS011;44050;48.884;8.762;2023-01-20T09:57:30;5.72;;;1.90;;
58252;SDS011;44050;48.884;8.762;2023-01-20T10:00:07;2.75;;;2.22;;
58252;SDS011;44050;48.884;8.762;2023-01-20T10:02:42;2.72;;;2.55;;
58252;SDS011;44050;48.884;8.762;2023-01-20T10:05:15;1.85;;;1.75;;
58252;SDS011;44050;48.884;8.762;2023-01-20T10:07:52;2.15;;;2.05;;
58252;SDS011;44050;48.884;8.762;2023-01-20T10:10:30;2.03;;;1.92;;
58252;SDS011;44050;48.884;8.762;2023-01-20T10:13:12;2.22;;;1.92;;
58252;SDS011;44050;48.884;8.762;2023-01-20T10:15:49;4.18;;;2.20;;
58252;SDS011;44050;48.884;8.762;2023-01-20T10:22:14;2.72;;;2.45;;
58252;SDS011;44050;48.884;8.762;2023-01-20T10:26:48;2.35;;;2.17;;
58252;SDS011;44050;48.884;8.762;2023-01-20T10:30:04;4.63;;;2.28;;
58252;SDS011;44050;48.884;8.762;2023-01-20T10:34:51;2.65;;;2.38;;
58252;SDS011;44050;48.884;8.762;2023-01-20T10:37:23;3.65;;;2.70;;
58252;SDS011;44050;48.884;8.762;2023-01-20T10:39:56;3.13;;;2.92;;
58252;SDS011;44050;48.884;8.762;2023-01-20T10:42:27;3.33;;;2.97;;
58252;SDS011;44050;48.884;8.762;2023-01-20T10:44:58;2.10;;;1.92;;
58252;SDS011;44050;48.884;8.762;2023-01-20T10:52:56;3.15;;;2.88;;
58252;SDS011;44050;48.884;8.762;2023-01-20T10:58:23;3.83;;;3.35;;
58252;SDS011;44050;48.884;8.762;2023-01-20T11:00:55;3.13;;;2.83;;
58252;SDS011;44050;48.884;8.762;2023-01-20T11:03:30;3.45;;;3.15;;
58252;SDS011;44050;48.884;8.762;2023-01-20T11:06:02;3.22;;;2.92;;
58252;SDS011;44050;48.884;8.762;2023-01-20T11:08:33;5.05;;;3.85;;
58252;SDS011;44050;48.884;8.762;2023-01-20T11:11:08;6.93;;;3.47;;
58252;SDS011;44050;48.884;8.762;2023-01-20T11:13:40;2.00;;;1.90;;
58252;SDS011;44050;48.884;8.762;2023-01-20T11:16:21;2.67;;;2.42;;
58252;SDS011;44050;48.884;8.762;2023-01-20T11:19:01;5.10;;;3.50;;
58252;SDS011;44050;48.884;8.762;2023-01-20T11:21:32;4.15;;;2.70;;
58252;SDS011;44050;48.884;8.762;2023-01-20T11:24:27;4.32;;;2.83;;
58252;SDS011;44050;48.884;8.762;2023-01-20T11:27:02;3.13;;;2.92;;
58252;SDS011;44050;48.884;8.762;2023-01-20T11:29:36;4.60;;;2.78;;
58252;SDS011;44050;48.884;8.762;2023-01-20T11:32:26;4.30;;;3.60;;
58252;SDS011;44050;48.884;8.762;2023-01-20T11:34:57;3.33;;;2.47;;
58252;SDS011;44050;48.884;8.762;2023-01-20T11:37:35;4.25;;;3.78;;
58252;SDS011;44050;48.884;8.762;2023-01-20T11:40:17;3.38;;;3.05;;
58252;SDS011;44050;48.884;8.762;2023-01-20T11:42:49;6.10;;;3.50;;
58252;SDS011;44050;48.884;8.762;2023-01-20T11:50:32;3.63;;;3.33;;
58252;SDS011;44050;48.884;8.762;2023-01-20T11:53:22;3.28;;;3.00;;
58252;SDS011;44050;48.884;8.762;2023-01-20T11:55:54;2.25;;;2.05;;
58252;SDS011;44050;48.884;8.762;2023-01-20T11:58:27;2.83;;;2.63;;
58252;SDS011;44050;48.884;8.762;2023-01-20T12:01:05;3.72;;;2.10;;
58252;SDS011;44050;48.884;8.762;2023-01-20T12:09:00;2.55;;;2.35;;
58252;SDS011;44050;48.884;8.762;2023-01-20T12:22:12;1.73;;;1.40;;
58252;SDS011;44050;48.884;8.762;2023-01-20T12:27:43;1.13;;;1.13;;
58252;SDS011;44050;48.884;8.762;2023-01-20T12:30:17;2.47;;;2.20;;
58252;SDS011;44050;48.884;8.762;2023-01-20T12:32:49;5.63;;;1.90;;
58252;SDS011;44050;48.884;8.762;2023-01-20T12:35:20;2.92;;;1.63;;
58252;SDS011;44050;48.884;8.762;2023-01-20T12:37:56;2.45;;;2.25;;
58252;SDS011;44050;48.884;8.762;2023-01-20T12:40:45;3.47;;;2.75;;
58252;SDS011;44050;48.884;8.762;2023-01-20T12:45:58;6.97;;;3.85;;
58252;SDS011;44050;48.884;8.762;2023-01-20T12:48:42;2.30;;;2.05;;
58252;SDS011;44050;48.884;8.762;2023-01-20T12:54:09;1.40;;;1.30;;
58252;SDS011;44050;48.884;8.762;2023-01-20T13:03:00;1.13;;;1.13;;
58252;SDS011;44050;48.884;8.762;2023-01-20T13:05:11;1.05;;;0.98;;
58252;SDS011;44050;48.884;8.762;2023-01-20T13:08:01;1.13;;;1.05;;
58252;SDS011;44050;48.884;8.762;2023-01-20T13:15:41;0.87;;;0.87;;
58252;SDS011;44050;48.884;8.762;2023-01-20T13:20:43;1.17;;;1.08;;
58252;SDS011;44050;48.884;8.762;2023-01-20T13:23:17;1.63;;;1.40;;
58252;SDS011;44050;48.884;8.762;2023-01-20T13:25:49;0.80;;;0.80;;
58252;SDS011;44050;48.884;8.762;2023-01-20T13:28:21;0.75;;;0.75;;
58252;SDS011;44050;48.884;8.762;2023-01-20T13:30:54;0.80;;;0.77;;
58252;SDS011;44050;48.884;8.762;2023-01-20T13:36:16;1.17;;;1.08;;
58252;SDS011;44050;48.884;8.762;2023-01-20T13:38:48;1.27;;;1.08;;
58252;SDS011;44050;48.884;8.762;2023-01-20T13:41:45;1.30;;;1.20;;
58252;SDS011;44050;48.884;8.762;2023-01-20T13:44:35;1.15;;;1.05;;
58252;SDS011;44050;48.884;8.762;2023-01-20T13:47:06;1.40;;;1.30;;
58252;SDS011;44050;48.884;8.762;2023-01-20T13:49:50;0.88;;;0.85;;
58252;SDS011;44050;48.884;8.762;2023-01-20T13:57:57;1.75;;;0.80;;
58252;SDS011;44050;48.884;8.762;2023-01-20T14:00:28;1.65;;;1.55;;
58252;SDS011;44050;48.884;8.762;2023-01-20T14:02:58;1.52;;;1.10;;
58252;SDS011;44050;48.884;8.762;2023-01-20T14:05:41;1.50;;;1.40;;
58252;SDS011;44050;48.884;8.762;2023-01-20T14:08:12;4.38;;;1.73;;
58252;SDS011;44050;48.884;8.762;2023-01-20T14:10:44;1.23;;;1.13;;
58252;SDS011;44050;48.884;8.762;2023-01-20T14:13:23;1.83;;;0.90;;
58252;SDS011;44050;48.884;8.762;2023-01-20T14:15:54;2.80;;;2.10;;
58252;SDS011;44050;48.884;8.762;2023-01-20T14:18:25;2.08;;;1.90;;
58252;SDS011;44050;48.884;8.762;2023-01-20T14:23:34;1.20;;;1.10;;
58252;SDS011;44050;48.884;8.762;2023-01-20T14:26:24;1.60;;;1.50;;
58252;SDS011;44050;48.884;8.762;2023-01-20T14:36:36;2.08;;;1.88;;
58252;SDS011;44050;48.884;8.762;2023-01-20T14:39:11;2.45;;;1.92;;
58252;SDS011;44050;48.884;8.762;2023-01-20T14:41:51;1.65;;;1.33;;
58252;SDS011;44050;48.884;8.762;2023-01-20T14:44:27;2.42;;;0.70;;
58252;SDS011;44050;48.884;8.762;2023-01-20T14:46:59;1.13;;;1.10;;
58252;SDS011;44050;48.884;8.762;2023-01-20T14:49:34;1.27;;;1.02;;
58252;SDS011;44050;48.884;8.762;2023-01-20T14:52:06;3.00;;;1.77;;
58252;SDS011;44050;48.884;8.762;2023-01-20T14:54:42;1.33;;;1.23;;
58252;SDS011;44050;48.884;8.762;2023-01-20T14:57:33;0.77;;;0.75;;
58252;SDS011;44050;48.884;8.762;2023-01-20T15:02:42;1.85;;;1.38;;
58252;SDS011;44050;48.884;8.762;2023-01-20T15:05:20;1.10;;;0.93;;
58252;SDS011;44050;48.884;8.762;2023-01-20T15:16:49;1.63;;;1.23;;
58252;SDS011;44050;48.884;8.762;2023-01-20T15:19:32;1.40;;;1.30;;
58252;SDS011;44050;48.884;8.762;2023-01-20T15:22:17;2.60;;;1.25;;
58252;SDS011;44050;48.884;8.762;2023-01-20T15:24:49;1.60;;;0.75;;
58252;SDS011;44050;48.884;8.762;2023-01-20T15:27:29;6.25;;;1.58;;
58252;SDS011;44050;48.884;8.762;2023-01-20T15:30:12;1.00;;;0.93;;
58252;SDS011;44050;48.884;8.762;2023-01-20T15:32:50;4.45;;;2.15;;
58252;SDS011;44050;48.884;8.762;2023-01-20T15:35:27;0.98;;;0.93;;
58252;SDS011;44050;48.884;8.762;2023-01-20T15:37:58;2.15;;;0.75;;
58252;SDS011;44050;48.884;8.762;2023-01-20T15:40:30;0.90;;;0.90;;
58252;SDS011;44050;48.884;8.762;2023-01-20T15:43:01;0.57;;;0.57;;
58252;SDS011;44050;48.884;8.762;2023-01-20T15:45:32;3.30;;;1.23;;
58252;SDS011;44050;48.884;8.762;2023-01-20T15:48:06;0.73;;;0.73;;
58252;SDS011;44050;48.884;8.762;2023-01-20T15:50:47;3.00;;;1.10;;
58252;SDS011;44050;48.884;8.762;2023-01-20T15:53:18;1.50;;;0.93;;
58252;SDS011;44050;48.884;8.762;2023-01-20T15:55:52;1.85;;;1.45;;
58252;SDS011;44050;48.884;8.762;2023-01-20T15:58:32;4.10;;;1.00;;
58252;SDS011;44050;48.884;8.762;2023-01-20T16:01:03;1.40;;;0.80;;
58252;SDS011;44050;48.884;8.762;2023-01-20T16:03:36;1.63;;;0.47;;
58252;SDS011;44050;48.884;8.762;2023-01-20T16:06:12;0.40;;;0.40;;
58252;SDS011;44050;48.884;8.762;2023-01-20T16:08:50;3.63;;;2.70;;
58252;SDS011;44050;48.884;8.762;2023-01-20T16:11:27;11.75;;;9.23;;
58252;SDS011;44050;48.884;8.762;2023-01-20T16:14:03;112.40;;;54.00;;
58252;SDS011;44050;48.884;8.762;2023-01-20T16:16:37;40.67;;;19.00;;
58252;SDS011;44050;48.884;8.762;2023-01-20T16:19:11;19.85;;;11.25;;
58252;SDS011;44050;48.884;8.762;2023-01-20T16:21:45;10.40;;;6.10;;
58252;SDS011;44050;48.884;8.762;2023-01-20T16:24:16;26.02;;;14.07;;
58252;SDS011;44050;48.884;8.762;2023-01-20T16:27:01;25.25;;;13.13;;
58252;SDS011;44050;48.884;8.762;2023-01-20T16:29:42;80.38;;;40.08;;
58252;SDS011;44050;48.884;8.762;2023-01-20T16:32:14;49.28;;;22.63;;
58252;SDS011;44050;48.884;8.762;2023-01-20T16:35:08;27.40;;;15.23;;
58252;SDS011;44050;48.884;8.762;2023-01-20T16:37:39;19.00;;;10.57;;
58252;SDS011;44050;48.884;8.762;2023-01-20T16:40:16;13.00;;;6.68;;
58252;SDS011;44050;48.884;8.762;2023-01-20T16:42:53;13.32;;;7.63;;
58252;SDS011;44050;48.884;8.762;2023-01-20T16:45:44;7.78;;;4.70;;
58252;SDS011;44050;48.884;8.762;2023-01-20T16:48:16;6.57;;;3.88;;
58252;SDS011;44050;48.884;8.762;2023-01-20T16:50:51;6.15;;;2.75;;
58252;SDS011;44050;48.884;8.762;2023-01-20T16:55:54;6.80;;;4.57;;
58252;SDS011;44050;48.884;8.762;2023-01-20T16:58:31;4.68;;;3.05;;
58252;SDS011;44050;48.884;8.762;2023-01-20T17:01:04;3.65;;;2.83;;
58252;SDS011;44050;48.884;8.762;2023-01-20T17:03:44;3.60;;;2.58;;
58252;SDS011;44050;48.884;8.762;2023-01-20T17:06:31;6.05;;;3.75;;
58252;SDS011;44050;48.884;8.762;2023-01-20T17:09:15;5.50;;;3.58;;
58252;SDS011;44050;48.884;8.762;2023-01-20T17:11:49;4.20;;;2.95;;
58252;SDS011;44050;48.884;8.762;2023-01-20T17:14:31;3.60;;;3.10;;
58252;SDS011;44050;48.884;8.762;2023-01-20T17:17:05;4.57;;;3.33;;
58252;SDS011;44050;48.884;8.762;2023-01-20T17:19:43;4.43;;;3.25;;
58252;SDS011;44050;48.884;8.762;2023-01-20T17:22:15;17.98;;;9.55;;
58252;SDS011;44050;48.884;8.762;2023-01-20T17:24:49;14.57;;;7.07;;
58252;SDS011;44050;48.884;8.762;2023-01-20T17:27:29;7.50;;;4.55;;
58252;SDS011;44050;48.884;8.762;2023-01-20T17:30:00;3.78;;;2.92;;
58252;SDS011;44050;48.884;8.762;2023-01-20T17:32:31;4.27;;;3.67;;
58252;SDS011;44050;48.884;8.762;2023-01-20T17:35:02;3.28;;;2.95;;
58252;SDS011;44050;48.884;8.762;2023-01-20T17:37:34;2.53;;;2.15;;
58252;SDS011;44050;48.884;8.762;2023-01-20T17:40:08;4.65;;;2.28;;
58252;SDS011;44050;48.884;8.762;2023-01-20T17:42:39;6.93;;;4.88;;
58252;SDS011;44050;48.884;8.762;2023-01-20T17:45:17;4.25;;;3.10;;
58252;SDS011;44050;48.884;8.762;2023-01-20T17:47:52;6.35;;;2.63;;